createdAt,value
2022-07-31T00:01:04.871Z,95842
2022-07-31T00:02:14.559Z,95842
2022-07-31T00:03:24.439Z,95837
2022-07-31T00:04:33.226Z,95842
2022-07-31T00:05:42.927Z,95839
2022-07-31T00:06:52.631Z,95835
2022-07-31T00:08:00.345Z,95832
2022-07-31T00:09:20.532Z,95835
2022-07-31T00:10:21.782Z,95838
2022-07-31T00:11:30.556Z,95837
2022-07-31T00:12:40.392Z,95834
2022-07-31T00:13:57.013Z,95833
2022-07-31T00:14:59.856Z,95834
2022-07-31T00:16:09.534Z,95831
2022-07-31T00:17:20.246Z,95832
2022-07-31T00:18:29.018Z,95836
2022-07-31T00:19:38.756Z,95833
2022-07-31T00:20:48.632Z,95834
2022-07-31T00:21:58.372Z,95829
2022-07-31T00:23:08.102Z,95828
2022-07-31T00:24:18.863Z,95827
2022-07-31T00:25:27.583Z,95826
2022-07-31T00:26:36.280Z,95828
2022-07-31T00:27:44.995Z,95827
2022-07-31T00:28:54.735Z,95828
2022-07-31T00:30:04.534Z,95825
2022-07-31T00:31:14.307Z,95824
2022-07-31T00:32:23.079Z,95825
2022-07-31T00:33:31.837Z,95833
2022-07-31T00:34:40.592Z,95829
2022-07-31T00:35:49.327Z,95830
2022-07-31T00:36:59.029Z,95832
2022-07-31T00:38:26.078Z,95829
2022-07-31T00:39:18.478Z,95827
2022-07-31T00:40:27.216Z,95828
2022-07-31T00:41:37.025Z,95827
2022-07-31T00:42:46.799Z,95830
2022-07-31T00:43:56.518Z,95831
2022-07-31T00:45:07.246Z,95827
2022-07-31T00:46:16.928Z,95826
2022-07-31T00:47:26.641Z,95824
2022-07-31T00:48:35.410Z,95827
2022-07-31T00:49:45.185Z,95828
2022-07-31T00:50:54.963Z,95829
2022-07-31T00:52:03.698Z,95831
2022-07-31T00:53:13.654Z,95825
2022-07-31T00:54:23.242Z,95832
2022-07-31T00:55:31.032Z,95830
2022-07-31T00:56:41.725Z,95829
2022-07-31T00:57:50.457Z,95828
2022-07-31T00:58:59.247Z,95829
2022-07-31T01:00:08.069Z,95828
2022-07-31T01:01:16.944Z,95827
2022-07-31T01:02:26.623Z,95831
2022-07-31T01:03:35.331Z,95830
2022-07-31T01:04:45.870Z,95831
2022-07-31T01:05:54.757Z,95829
2022-07-31T01:07:02.791Z,95826
2022-07-31T01:08:12.127Z,95830
2022-07-31T01:09:21.884Z,95826
2022-07-31T01:10:31.681Z,95832
2022-07-31T01:11:41.420Z,95830
2022-07-31T01:12:54.173Z,95833
2022-07-31T01:14:01.925Z,95835
2022-07-31T01:15:11.625Z,95835
2022-07-31T01:16:19.316Z,95831
2022-07-31T01:17:27.974Z,95833
2022-07-31T01:18:37.735Z,95833
2022-07-31T01:19:46.514Z,95835
2022-07-31T01:20:56.463Z,95831
2022-07-31T01:22:05.223Z,95830
2022-07-31T01:23:15.910Z,95830
2022-07-31T01:24:25.663Z,95832
2022-07-31T01:25:33.349Z,95831
2022-07-31T01:26:42.020Z,95831
2022-07-31T01:27:51.792Z,95828
2022-07-31T01:29:01.598Z,95833
2022-07-31T01:30:11.413Z,95832
2022-07-31T01:31:28.349Z,95829
2022-07-31T01:32:30.936Z,95829
2022-07-31T01:33:40.726Z,95825
2022-07-31T01:34:49.456Z,95822
2022-07-31T01:35:59.123Z,95824
2022-07-31T01:37:10.456Z,95822
2022-07-31T01:38:16.566Z,95824
2022-07-31T01:39:26.317Z,95826
2022-07-31T01:40:37.052Z,95824
2022-07-31T01:41:46.828Z,95823
2022-07-31T01:42:56.617Z,95822
2022-07-31T01:44:06.316Z,95824
2022-07-31T01:45:15.107Z,95821
2022-07-31T01:46:25.797Z,95820
2022-07-31T01:47:33.554Z,95821
2022-07-31T01:48:42.287Z,95819
2022-07-31T01:49:52.029Z,95820
2022-07-31T01:51:01.818Z,95818
2022-07-31T01:52:11.608Z,95818
2022-07-31T01:53:20.361Z,95816
2022-07-31T01:54:29.064Z,95816
2022-07-31T01:55:56.254Z,95814
2022-07-31T01:56:49.550Z,95813
2022-07-31T01:57:58.260Z,95813
2022-07-31T01:59:15.611Z,95814
2022-07-31T02:00:33.998Z,95809
2022-07-31T02:01:28.470Z,95809
2022-07-31T02:02:38.192Z,95812
2022-07-31T02:03:48.227Z,95807
2022-07-31T02:04:58.573Z,95806
2022-07-31T02:06:06.236Z,95808
2022-07-31T02:07:14.986Z,95804
2022-07-31T02:08:23.766Z,95807
2022-07-31T02:09:33.530Z,95806
2022-07-31T02:10:44.269Z,95807
2022-07-31T02:11:53.639Z,95804
2022-07-31T02:13:01.713Z,95808
2022-07-31T02:14:11.471Z,95810
2022-07-31T02:15:20.150Z,95810
2022-07-31T02:16:28.865Z,95804
2022-07-31T02:17:37.543Z,95805
2022-07-31T02:18:47.288Z,95805
2022-07-31T02:20:00.067Z,95809
2022-07-31T02:21:06.776Z,95805
2022-07-31T02:22:15.518Z,95804
2022-07-31T02:23:25.246Z,95804
2022-07-31T02:24:34.990Z,95806
2022-07-31T02:25:44.799Z,95804
2022-07-31T02:26:54.510Z,95806
2022-07-31T02:28:04.278Z,95808
2022-07-31T02:29:19.273Z,95810
2022-07-31T02:30:23.710Z,95813
2022-07-31T02:31:33.481Z,95812
2022-07-31T02:32:43.238Z,95812
2022-07-31T02:33:52.999Z,95808
2022-07-31T02:35:01.745Z,95807
2022-07-31T02:36:11.490Z,95808
2022-07-31T02:37:21.278Z,95812
2022-07-31T02:38:30.011Z,95809
2022-07-31T02:39:39.749Z,95808
2022-07-31T02:40:49.515Z,95810
2022-07-31T02:41:58.296Z,95808
2022-07-31T02:43:07.317Z,95804
2022-07-31T02:44:16.806Z,95806
2022-07-31T02:45:27.499Z,95803
2022-07-31T02:46:37.304Z,95803
2022-07-31T02:47:47.111Z,95802
2022-07-31T02:48:57.076Z,95797
2022-07-31T02:50:06.809Z,95800
2022-07-31T02:51:16.556Z,95800
2022-07-31T02:52:27.338Z,95801
2022-07-31T02:53:36.110Z,95801
2022-07-31T02:54:45.868Z,95799
2022-07-31T02:55:53.663Z,95800
2022-07-31T02:57:03.470Z,95803
2022-07-31T02:58:13.259Z,95805
2022-07-31T02:59:23.061Z,95802
2022-07-31T03:00:32.092Z,95804
2022-07-31T03:01:41.757Z,95798
2022-07-31T03:02:51.547Z,95801
2022-07-31T03:04:01.289Z,95804
2022-07-31T03:05:11.030Z,95804
2022-07-31T03:06:20.850Z,95809
2022-07-31T03:07:30.600Z,95806
2022-07-31T03:08:39.377Z,95804
2022-07-31T03:09:49.197Z,95805
2022-07-31T03:10:58.945Z,95808
2022-07-31T03:12:08.754Z,95801
2022-07-31T03:13:18.526Z,95801
2022-07-31T03:14:26.280Z,95803
2022-07-31T03:15:35.968Z,95806
2022-07-31T03:16:46.720Z,95807
2022-07-31T03:17:56.503Z,95806
2022-07-31T03:19:07.302Z,95802
2022-07-31T03:20:17.075Z,95803
2022-07-31T03:21:25.820Z,95804
2022-07-31T03:22:35.601Z,95803
2022-07-31T03:23:44.378Z,95800
2022-07-31T03:24:54.114Z,95801
2022-07-31T03:26:03.837Z,95804
2022-07-31T03:27:12.576Z,95802
2022-07-31T03:28:21.329Z,95802
2022-07-31T03:29:36.081Z,95802
2022-07-31T03:30:41.915Z,95802
2022-07-31T03:31:51.635Z,95803
2022-07-31T03:33:01.454Z,95803
2022-07-31T03:34:11.220Z,95801
2022-07-31T03:35:21.003Z,95796
2022-07-31T03:36:29.800Z,95798
2022-07-31T03:37:39.607Z,95801
2022-07-31T03:38:50.680Z,95801
2022-07-31T03:39:59.201Z,95802
2022-07-31T03:41:09.001Z,95802
2022-07-31T03:42:18.457Z,95798
2022-07-31T03:43:26.418Z,95796
2022-07-31T03:44:37.185Z,95795
2022-07-31T03:45:46.000Z,95799
2022-07-31T03:46:54.851Z,95799
2022-07-31T03:48:04.609Z,95797
2022-07-31T03:49:14.390Z,95802
2022-07-31T03:50:24.106Z,95802
2022-07-31T03:51:31.903Z,95801
2022-07-31T03:52:40.743Z,95797
2022-07-31T03:53:50.548Z,95798
2022-07-31T03:54:59.365Z,95800
2022-07-31T03:56:08.171Z,95794
2022-07-31T03:57:17.925Z,95800
2022-07-31T03:58:28.673Z,95798
2022-07-31T03:59:39.905Z,95800
2022-07-31T04:00:50.192Z,95801
2022-07-31T04:01:59.935Z,95806
2022-07-31T04:03:09.712Z,95805
2022-07-31T04:04:18.885Z,95804
2022-07-31T04:05:27.609Z,95804
2022-07-31T04:06:37.423Z,95804
2022-07-31T04:07:47.105Z,95801
2022-07-31T04:08:56.850Z,95796
2022-07-31T04:10:07.725Z,95809
2022-07-31T04:11:16.510Z,95803
2022-07-31T04:12:26.271Z,95807
2022-07-31T04:13:35.093Z,95807
2022-07-31T04:14:44.868Z,95809
2022-07-31T04:15:54.696Z,95808
2022-07-31T04:17:04.445Z,95814
2022-07-31T04:18:13.162Z,95814
2022-07-31T04:19:22.925Z,95813
2022-07-31T04:20:32.706Z,95813
2022-07-31T04:21:42.498Z,95814
2022-07-31T04:22:52.242Z,95813
2022-07-31T04:24:01.989Z,95815
2022-07-31T04:25:11.746Z,95812
2022-07-31T04:26:25.887Z,95800
2022-07-31T04:27:30.264Z,95806
2022-07-31T04:28:41.009Z,95805
2022-07-31T04:29:50.748Z,95804
2022-07-31T04:31:00.495Z,95803
2022-07-31T04:32:10.192Z,95803
2022-07-31T04:33:19.013Z,95805
2022-07-31T04:34:27.713Z,95805
2022-07-31T04:35:36.482Z,95809
2022-07-31T04:36:46.254Z,95810
2022-07-31T04:37:55.985Z,95812
2022-07-31T04:39:04.770Z,95809
2022-07-31T04:40:14.514Z,95814
2022-07-31T04:41:23.298Z,95815
2022-07-31T04:42:33.032Z,95819
2022-07-31T04:43:42.819Z,95818
2022-07-31T04:44:52.584Z,95821
2022-07-31T04:46:02.399Z,95818
2022-07-31T04:47:13.070Z,95818
2022-07-31T04:48:22.881Z,95815
2022-07-31T04:49:32.681Z,95817
2022-07-31T04:50:42.446Z,95821
2022-07-31T04:51:52.227Z,95824
2022-07-31T04:53:02.004Z,95824
2022-07-31T04:54:10.736Z,95824
2022-07-31T04:55:19.476Z,95825
2022-07-31T04:56:29.239Z,95823
2022-07-31T04:57:38.093Z,95825
2022-07-31T04:58:47.823Z,95825
2022-07-31T04:59:58.296Z,95828
2022-07-31T05:01:05.273Z,95823
2022-07-31T05:02:16.068Z,95824
2022-07-31T05:03:23.836Z,95823
2022-07-31T05:04:33.571Z,95821
2022-07-31T05:05:43.388Z,95822
2022-07-31T05:06:51.142Z,95826
2022-07-31T05:08:01.067Z,95826
2022-07-31T05:09:17.942Z,95821
2022-07-31T05:10:22.552Z,95824
2022-07-31T05:11:32.315Z,95824
2022-07-31T05:12:42.046Z,95822
2022-07-31T05:13:51.880Z,95821
2022-07-31T05:15:01.637Z,95827
2022-07-31T05:16:10.416Z,95823
2022-07-31T05:17:20.133Z,95821
2022-07-31T05:18:29.926Z,95821
2022-07-31T05:19:39.789Z,95823
2022-07-31T05:20:49.537Z,95821
2022-07-31T05:22:02.257Z,95820
2022-07-31T05:23:07.987Z,95819
2022-07-31T05:24:17.736Z,95820
2022-07-31T05:25:28.430Z,95820
2022-07-31T05:26:38.194Z,95823
2022-07-31T05:27:49.001Z,95822
2022-07-31T05:28:58.511Z,95823
2022-07-31T05:30:07.402Z,95823
2022-07-31T05:31:16.194Z,95823
2022-07-31T05:32:25.979Z,95820
2022-07-31T05:33:35.759Z,95822
2022-07-31T05:34:45.593Z,95820
2022-07-31T05:35:55.354Z,95823
2022-07-31T05:37:04.224Z,95819
2022-07-31T05:38:13.961Z,95819
2022-07-31T05:39:23.727Z,95822
2022-07-31T05:40:31.474Z,95825
2022-07-31T05:41:41.277Z,95826
2022-07-31T05:42:51.068Z,95822
2022-07-31T05:43:58.794Z,95824
2022-07-31T05:45:07.609Z,95831
2022-07-31T05:46:17.354Z,95830
2022-07-31T05:47:39.668Z,95831
2022-07-31T05:48:37.849Z,95825
2022-07-31T05:49:46.591Z,95826
2022-07-31T05:50:56.344Z,95832
2022-07-31T05:52:07.239Z,95833
2022-07-31T05:53:16.746Z,95838
2022-07-31T05:54:26.529Z,95840
2022-07-31T05:55:36.327Z,95838
2022-07-31T05:56:45.081Z,95842
2022-07-31T05:57:54.837Z,95842
2022-07-31T05:59:04.614Z,95841
2022-07-31T06:00:14.432Z,95839
2022-07-31T06:01:24.268Z,95841
2022-07-31T06:02:32.941Z,95843
2022-07-31T06:03:51.424Z,95842
2022-07-31T06:04:53.517Z,95845
2022-07-31T06:06:04.426Z,95841
2022-07-31T06:07:15.204Z,95843
2022-07-31T06:08:25.002Z,95840
2022-07-31T06:09:34.800Z,95835
2022-07-31T06:10:44.556Z,95838
2022-07-31T06:11:53.471Z,95839
2022-07-31T06:13:03.206Z,95839
2022-07-31T06:14:12.954Z,95839
2022-07-31T06:15:22.682Z,95843
2022-07-31T06:16:31.423Z,95845
2022-07-31T06:17:44.325Z,95841
2022-07-31T06:18:50.844Z,95843
2022-07-31T06:19:59.611Z,95841
2022-07-31T06:21:09.389Z,95842
2022-07-31T06:22:13.978Z,95845
2022-07-31T06:23:27.930Z,95845
2022-07-31T06:24:34.479Z,95850
2022-07-31T06:25:44.236Z,95852
2022-07-31T06:26:54.017Z,95852
2022-07-31T06:28:04.148Z,95851
2022-07-31T06:29:13.550Z,95848
2022-07-31T06:30:24.298Z,95846
2022-07-31T06:31:34.060Z,95845
2022-07-31T06:32:43.785Z,95844
2022-07-31T06:33:53.596Z,95845
2022-07-31T06:35:03.432Z,95843
2022-07-31T06:36:13.228Z,95845
2022-07-31T06:37:22.056Z,95845
2022-07-31T06:38:30.852Z,95847
2022-07-31T06:39:54.974Z,95845
2022-07-31T06:40:50.350Z,95843
2022-07-31T06:42:00.227Z,95841
2022-07-31T06:43:08.805Z,95841
2022-07-31T06:44:18.516Z,95839
2022-07-31T06:45:48.766Z,95841
2022-07-31T06:46:38.995Z,95840
2022-07-31T06:47:48.741Z,95839
2022-07-31T06:48:57.568Z,95841
2022-07-31T06:50:08.348Z,95836
2022-07-31T06:51:32.652Z,95839
2022-07-31T06:52:28.848Z,95837
2022-07-31T06:53:38.601Z,95835
2022-07-31T06:54:48.344Z,95841
2022-07-31T06:55:58.124Z,95842
2022-07-31T06:57:07.928Z,95843
2022-07-31T06:58:17.702Z,95843
2022-07-31T06:59:39.472Z,95848
2022-07-31T07:00:38.205Z,95846
2022-07-31T07:01:47.046Z,95850
2022-07-31T07:02:55.725Z,95849
2022-07-31T07:04:05.505Z,95848
2022-07-31T07:05:14.258Z,95853
2022-07-31T07:06:22.993Z,95851
2022-07-31T07:07:32.727Z,95854
2022-07-31T07:08:42.497Z,95858
2022-07-31T07:09:52.266Z,95856
2022-07-31T07:11:00.980Z,95860
2022-07-31T07:12:10.746Z,95860
2022-07-31T07:13:20.445Z,95855
2022-07-31T07:14:31.167Z,95862
2022-07-31T07:15:40.953Z,95859
2022-07-31T07:16:49.673Z,95862
2022-07-31T07:17:59.434Z,95862
2022-07-31T07:19:09.195Z,95862
2022-07-31T07:20:16.924Z,95863
2022-07-31T07:21:25.757Z,95865
2022-07-31T07:22:35.499Z,95868
2022-07-31T07:23:44.246Z,95865
2022-07-31T07:24:52.998Z,95863
2022-07-31T07:26:02.764Z,95859
2022-07-31T07:27:12.546Z,95860
2022-07-31T07:28:30.868Z,95857
2022-07-31T07:29:33.241Z,95855
2022-07-31T07:30:42.069Z,95852
2022-07-31T07:31:51.872Z,95855
2022-07-31T07:33:01.671Z,95853
2022-07-31T07:34:11.396Z,95852
2022-07-31T07:35:21.132Z,95854
2022-07-31T07:36:30.921Z,95854
2022-07-31T07:37:40.658Z,95855
2022-07-31T07:38:50.500Z,95855
2022-07-31T07:40:02.620Z,95858
2022-07-31T07:41:10.108Z,95859
2022-07-31T07:42:20.851Z,95855
2022-07-31T07:43:30.622Z,95858
2022-07-31T07:44:41.378Z,95853
2022-07-31T07:45:51.097Z,95859
2022-07-31T07:47:00.854Z,95858
2022-07-31T07:48:09.571Z,95852
2022-07-31T07:49:18.406Z,95852
2022-07-31T07:50:29.113Z,95854
2022-07-31T07:51:37.912Z,95846
2022-07-31T07:52:48.654Z,95845
2022-07-31T07:53:57.377Z,95846
2022-07-31T07:55:06.212Z,95845
2022-07-31T07:56:15.996Z,95844
2022-07-31T07:57:25.750Z,95839
2022-07-31T07:58:35.498Z,95843
2022-07-31T07:59:45.200Z,95844
2022-07-31T08:00:55.024Z,95842
2022-07-31T08:02:04.998Z,95840
2022-07-31T08:03:47.782Z,95843
2022-07-31T08:04:24.191Z,95837
2022-07-31T08:05:33.994Z,95842
2022-07-31T08:06:43.780Z,95838
2022-07-31T08:07:52.537Z,95841
2022-07-31T08:09:02.329Z,95841
2022-07-31T08:10:12.084Z,95841
2022-07-31T08:11:20.849Z,95840
2022-07-31T08:12:30.606Z,95837
2022-07-31T08:13:40.675Z,95835
2022-07-31T08:14:51.304Z,95838
2022-07-31T08:16:00.167Z,95835
2022-07-31T08:17:09.912Z,95833
2022-07-31T08:18:18.641Z,95838
2022-07-31T08:19:29.511Z,95833
2022-07-31T08:20:39.277Z,95834
2022-07-31T08:21:49.088Z,95842
2022-07-31T08:22:58.884Z,95840
2022-07-31T08:24:07.596Z,95842
2022-07-31T08:25:16.436Z,95836
2022-07-31T08:26:27.421Z,95838
2022-07-31T08:27:40.049Z,95836
2022-07-31T08:28:50.282Z,95836
2022-07-31T08:29:54.337Z,95835
2022-07-31T08:31:04.212Z,95831
2022-07-31T08:32:14.020Z,95841
2022-07-31T08:33:23.878Z,95841
2022-07-31T08:34:33.684Z,95836
2022-07-31T08:35:44.731Z,95844
2022-07-31T08:36:54.175Z,95835
2022-07-31T08:38:05.148Z,95839
2022-07-31T08:39:17.553Z,95831
2022-07-31T08:40:24.520Z,95834
2022-07-31T08:41:35.295Z,95836
2022-07-31T08:42:44.087Z,95835
2022-07-31T08:44:00.961Z,95836
2022-07-31T08:45:04.721Z,95835
2022-07-31T08:46:13.477Z,95836
2022-07-31T08:47:23.512Z,95838
2022-07-31T08:48:32.179Z,95839
2022-07-31T08:49:40.986Z,95836
2022-07-31T08:50:53.727Z,95839
2022-07-31T08:52:00.361Z,95836
2022-07-31T08:53:10.148Z,95832
2022-07-31T08:54:19.976Z,95831
2022-07-31T08:55:54.878Z,95836
2022-07-31T08:56:40.445Z,95840
2022-07-31T08:57:50.219Z,95842
2022-07-31T08:58:58.916Z,95838
2022-07-31T09:00:07.702Z,95838
2022-07-31T09:01:17.520Z,95837
2022-07-31T09:02:25.167Z,95839
2022-07-31T09:03:35.005Z,95835
2022-07-31T09:04:51.950Z,95839
2022-07-31T09:05:57.888Z,95837
2022-07-31T09:07:07.733Z,95834
2022-07-31T09:08:16.488Z,95836
2022-07-31T09:09:26.217Z,95829
2022-07-31T09:10:36.999Z,95828
2022-07-31T09:11:47.888Z,95830
2022-07-31T09:12:56.640Z,95838
2022-07-31T09:14:05.483Z,95830
2022-07-31T09:15:15.249Z,95827
2022-07-31T09:16:30.643Z,95823
2022-07-31T09:17:34.872Z,95829
2022-07-31T09:18:45.629Z,95824
2022-07-31T09:19:55.393Z,95823
2022-07-31T09:21:03.104Z,95818
2022-07-31T09:22:12.879Z,95822
2022-07-31T09:23:22.829Z,95824
2022-07-31T09:24:31.615Z,95821
2022-07-31T09:25:42.329Z,95820
2022-07-31T09:26:53.142Z,95823
2022-07-31T09:28:02.882Z,95823
2022-07-31T09:29:12.684Z,95820
2022-07-31T09:30:22.413Z,95819
2022-07-31T09:31:32.167Z,95816
2022-07-31T09:32:40.909Z,95819
2022-07-31T09:33:49.678Z,95820
2022-07-31T09:34:59.454Z,95814
2022-07-31T09:36:08.330Z,95818
2022-07-31T09:37:17.074Z,95815
2022-07-31T09:38:26.879Z,95810
2022-07-31T09:39:35.893Z,95812
2022-07-31T09:40:51.632Z,95813
2022-07-31T09:42:00.192Z,95813
2022-07-31T09:43:07.938Z,95806
2022-07-31T09:44:17.709Z,95809
2022-07-31T09:45:28.437Z,95805
2022-07-31T09:46:37.214Z,95811
2022-07-31T09:47:46.989Z,95811
2022-07-31T09:48:56.574Z,95806
2022-07-31T09:50:05.524Z,95807
2022-07-31T09:51:14.371Z,95809
2022-07-31T09:52:24.296Z,95812
2022-07-31T09:53:34.072Z,95808
2022-07-31T09:54:44.803Z,95809
2022-07-31T09:55:54.787Z,95810
2022-07-31T09:57:04.778Z,95809
2022-07-31T09:58:14.529Z,95808
2022-07-31T09:59:24.336Z,95804
2022-07-31T10:00:34.235Z,95807
2022-07-31T10:01:43.956Z,95805
2022-07-31T10:02:53.715Z,95806
2022-07-31T10:04:02.528Z,95812
2022-07-31T10:05:12.353Z,95813
2022-07-31T10:06:22.215Z,95806
2022-07-31T10:07:32.924Z,95804
2022-07-31T10:08:40.778Z,95802
2022-07-31T10:09:50.694Z,95808
2022-07-31T10:11:00.491Z,95797
2022-07-31T10:12:14.725Z,95795
2022-07-31T10:13:20.976Z,95798
2022-07-31T10:14:30.729Z,95797
2022-07-31T10:15:40.647Z,95796
2022-07-31T10:16:49.401Z,95793
2022-07-31T10:17:59.180Z,95790
2022-07-31T10:19:08.991Z,95797
2022-07-31T10:20:17.805Z,95787
2022-07-31T10:21:27.622Z,95789
2022-07-31T10:22:37.373Z,95789
2022-07-31T10:23:46.212Z,95797
2022-07-31T10:24:55.975Z,95792
2022-07-31T10:26:05.705Z,95789
2022-07-31T10:27:15.860Z,95788
2022-07-31T10:28:24.325Z,95790
2022-07-31T10:29:33.373Z,95792
2022-07-31T10:30:42.858Z,95787
2022-07-31T10:31:52.635Z,95786
2022-07-31T10:33:02.475Z,95787
2022-07-31T10:34:13.206Z,95793
2022-07-31T10:35:22.978Z,95790
2022-07-31T10:36:32.757Z,95789
2022-07-31T10:37:42.546Z,95790
2022-07-31T10:38:52.380Z,95794
2022-07-31T10:40:01.146Z,95791
2022-07-31T10:41:09.977Z,95790
2022-07-31T10:42:19.770Z,95788
2022-07-31T10:43:29.510Z,95786
2022-07-31T10:44:38.992Z,95788
2022-07-31T10:45:47.086Z,95793
2022-07-31T10:46:54.919Z,95790
2022-07-31T10:48:03.689Z,95786
2022-07-31T10:49:12.368Z,95787
2022-07-31T10:50:22.133Z,95781
2022-07-31T10:51:29.838Z,95772
2022-07-31T10:52:39.573Z,95774
2022-07-31T10:53:50.805Z,95779
2022-07-31T10:54:57.996Z,95772
2022-07-31T10:56:07.733Z,95777
2022-07-31T10:57:15.430Z,95783
2022-07-31T10:58:25.173Z,95783
2022-07-31T10:59:34.982Z,95780
2022-07-31T11:00:45.692Z,95786
2022-07-31T11:01:55.593Z,95779
2022-07-31T11:03:04.313Z,95780
2022-07-31T11:04:15.022Z,95777
2022-07-31T11:05:23.717Z,95768
2022-07-31T11:06:32.417Z,95759
2022-07-31T11:07:42.105Z,95776
2022-07-31T11:08:51.874Z,95769
2022-07-31T11:10:00.703Z,95776
2022-07-31T11:11:10.501Z,95773
2022-07-31T11:12:20.349Z,95775
2022-07-31T11:13:33.498Z,95773
2022-07-31T11:14:39.876Z,95771
2022-07-31T11:15:49.550Z,95770
2022-07-31T11:17:00.292Z,95781
2022-07-31T11:18:16.113Z,95780
2022-07-31T11:19:20.840Z,95779
2022-07-31T11:20:30.532Z,95774
2022-07-31T11:21:40.349Z,95755
2022-07-31T11:22:49.931Z,95762
2022-07-31T11:24:02.923Z,95762
2022-07-31T11:25:10.366Z,95763
2022-07-31T11:26:32.394Z,95762
2022-07-31T11:27:30.682Z,95757
2022-07-31T11:28:38.375Z,95758
2022-07-31T11:29:58.228Z,95762
2022-07-31T11:30:58.829Z,95758
2022-07-31T11:32:07.590Z,95757
2022-07-31T11:33:17.353Z,95752
2022-07-31T11:34:27.072Z,95756
2022-07-31T11:35:35.830Z,95754
2022-07-31T11:36:49.316Z,95751
2022-07-31T11:37:56.525Z,95745
2022-07-31T11:39:05.072Z,95752
2022-07-31T11:40:14.889Z,95754
2022-07-31T11:41:25.665Z,95750
2022-07-31T11:42:36.461Z,95750
2022-07-31T11:43:44.085Z,95759
2022-07-31T11:44:51.781Z,95747
2022-07-31T11:46:01.489Z,95756
2022-07-31T11:48:38.319Z,95759
2022-07-31T11:49:48.343Z,95757
2022-07-31T11:50:53.328Z,95763
2022-07-31T11:52:02.095Z,95753
2022-07-31T11:53:12.796Z,95762
2022-07-31T11:54:21.610Z,95767
2022-07-31T11:55:30.291Z,95769
2022-07-31T11:56:39.966Z,95767
2022-07-31T11:57:52.036Z,95771
2022-07-31T11:58:58.403Z,95768
2022-07-31T12:00:11.281Z,95775
2022-07-31T12:01:18.897Z,95762
2022-07-31T12:02:28.725Z,95765
2022-07-31T12:03:37.425Z,95759
2022-07-31T12:04:46.211Z,95765
2022-07-31T12:05:54.977Z,95765
2022-07-31T12:07:03.793Z,95765
2022-07-31T12:08:13.384Z,95756
2022-07-31T12:10:00.057Z,95756
2022-07-31T12:10:32.982Z,95753
2022-07-31T12:11:42.786Z,95748
2022-07-31T12:12:51.582Z,95754
2022-07-31T12:14:00.338Z,95748
2022-07-31T12:15:09.045Z,95745
2022-07-31T12:16:17.717Z,95745
2022-07-31T12:17:27.457Z,95748
2022-07-31T12:18:35.160Z,95747
2022-07-31T12:19:43.946Z,95748
2022-07-31T12:20:54.687Z,95746
2022-07-31T12:22:04.476Z,95747
2022-07-31T12:23:38.924Z,95738
2022-07-31T12:24:25.195Z,95739
2022-07-31T12:25:34.860Z,95731
2022-07-31T12:26:44.734Z,95736
2022-07-31T12:27:53.520Z,95732
2022-07-31T12:29:02.461Z,95728
2022-07-31T12:30:12.289Z,95730
2022-07-31T12:31:22.047Z,95729
2022-07-31T12:32:31.804Z,95731
2022-07-31T12:33:41.525Z,95729
2022-07-31T12:34:50.277Z,95737
2022-07-31T12:36:00.063Z,95724
2022-07-31T12:37:08.807Z,95722
2022-07-31T12:38:37.655Z,95723
2022-07-31T12:39:47.673Z,95724
2022-07-31T12:40:40.072Z,95720
2022-07-31T12:41:48.880Z,95724
2022-07-31T12:42:57.675Z,95718
2022-07-31T12:44:07.386Z,95710
2022-07-31T12:45:19.415Z,95723
2022-07-31T12:46:28.746Z,95713
2022-07-31T12:47:38.454Z,95718
2022-07-31T12:48:49.330Z,95720
2022-07-31T12:49:57.994Z,95727
2022-07-31T12:51:07.738Z,95729
2022-07-31T12:52:17.482Z,95724
2022-07-31T12:53:26.309Z,95727
2022-07-31T12:54:39.363Z,95723
2022-07-31T12:55:45.732Z,95718
2022-07-31T12:56:53.465Z,95719
2022-07-31T12:58:03.251Z,95714
2022-07-31T12:59:12.015Z,95721
2022-07-31T13:00:21.799Z,95710
2022-07-31T13:01:31.574Z,95706
2022-07-31T13:02:40.327Z,95705
2022-07-31T13:03:50.079Z,95699
2022-07-31T13:04:59.821Z,95701
2022-07-31T13:06:08.562Z,95707
2022-07-31T13:07:18.283Z,95708
2022-07-31T13:08:27.136Z,95708
2022-07-31T13:09:37.176Z,95700
2022-07-31T13:10:47.959Z,95703
2022-07-31T13:11:58.123Z,95701
2022-07-31T13:13:07.449Z,95700
2022-07-31T13:14:17.234Z,95701
2022-07-31T13:15:27.008Z,95698
2022-07-31T13:16:36.024Z,95697
2022-07-31T13:17:47.834Z,95695
2022-07-31T13:18:55.475Z,95703
2022-07-31T13:20:09.664Z,95695
2022-07-31T13:21:19.440Z,95693
2022-07-31T13:22:30.993Z,95692
2022-07-31T13:23:44.278Z,95691
2022-07-31T13:24:54.957Z,95695
2022-07-31T13:26:04.619Z,95693
2022-07-31T13:27:14.334Z,95691
2022-07-31T13:28:23.258Z,95692
2022-07-31T13:29:33.037Z,95683
2022-07-31T13:30:42.761Z,95686
2022-07-31T13:31:52.515Z,95685
2022-07-31T13:33:02.275Z,95683
2022-07-31T13:34:10.016Z,95688
2022-07-31T13:35:24.133Z,95682
2022-07-31T13:36:34.046Z,95682
2022-07-31T13:37:40.064Z,95689
2022-07-31T13:38:49.953Z,95685
2022-07-31T13:39:59.678Z,95687
2022-07-31T13:41:09.420Z,95691
2022-07-31T13:42:19.166Z,95686
2022-07-31T13:43:28.931Z,95688
2022-07-31T13:44:38.674Z,95688
2022-07-31T13:45:47.377Z,95687
2022-07-31T13:46:56.105Z,95692
2022-07-31T13:48:09.183Z,95696
2022-07-31T13:49:15.727Z,95681
2022-07-31T13:50:24.331Z,95691
2022-07-31T13:51:34.054Z,95686
2022-07-31T13:52:42.855Z,95694
2022-07-31T13:53:51.627Z,95692
2022-07-31T13:55:01.339Z,95684
2022-07-31T13:56:11.041Z,95688
2022-07-31T13:57:21.740Z,95680
2022-07-31T13:58:30.452Z,95692
2022-07-31T13:59:39.293Z,95680
2022-07-31T14:00:49.042Z,95682
2022-07-31T14:02:13.691Z,95689
2022-07-31T14:03:08.564Z,95692
2022-07-31T14:04:22.989Z,95695
2022-07-31T14:05:27.982Z,95687
2022-07-31T14:06:38.600Z,95694
2022-07-31T14:07:51.669Z,95694
2022-07-31T14:08:58.011Z,95689
2022-07-31T14:10:07.752Z,95685
2022-07-31T14:11:17.468Z,95690
2022-07-31T14:12:27.198Z,95686
2022-07-31T14:13:42.470Z,95673
2022-07-31T14:14:46.825Z,95670
2022-07-31T14:15:56.573Z,95666
2022-07-31T14:17:04.220Z,95664
2022-07-31T14:18:13.947Z,95679
2022-07-31T14:19:23.709Z,95678
2022-07-31T14:20:34.474Z,95690
2022-07-31T14:21:49.968Z,95691
2022-07-31T14:22:54.912Z,95678
2022-07-31T14:24:04.621Z,95686
2022-07-31T14:25:13.326Z,95676
2022-07-31T14:26:21.984Z,95663
2022-07-31T14:27:30.643Z,95662
2022-07-31T14:28:40.335Z,95673
2022-07-31T14:29:49.074Z,95672
2022-07-31T14:30:58.886Z,95665
2022-07-31T14:32:08.924Z,95671
2022-07-31T14:33:17.337Z,95668
2022-07-31T14:34:29.742Z,95673
2022-07-31T14:35:37.689Z,95660
2022-07-31T14:36:46.407Z,95669
2022-07-31T14:37:56.116Z,95667
2022-07-31T14:39:06.857Z,95666
2022-07-31T14:40:15.571Z,95655
2022-07-31T14:41:25.381Z,95660
2022-07-31T14:42:35.226Z,95662
2022-07-31T14:43:45.981Z,95662
2022-07-31T14:44:54.681Z,95671
2022-07-31T14:46:03.457Z,95661
2022-07-31T14:47:13.141Z,95659
2022-07-31T14:48:20.821Z,95659
2022-07-31T14:50:08.179Z,95667
2022-07-31T14:50:40.149Z,95660
2022-07-31T14:51:47.837Z,95667
2022-07-31T14:52:56.484Z,95655
2022-07-31T14:54:06.227Z,95659
2022-07-31T14:55:13.877Z,95656
2022-07-31T14:56:45.242Z,95674
2022-07-31T14:57:34.326Z,95674